sensor_id;sensor_type;location;lat;lon;timestamp;P1;durP1;ratioP1;P2;durP2;ratioP2
72273;SDS011;77240;48.692;8.948;2024-03-23T00:55:15;8.27;;;5.45;;
72273;SDS011;77240;48.692;8.948;2024-03-23T00:57:41;6.93;;;5.07;;
72273;SDS011;77240;48.692;8.948;2024-03-23T01:00:07;6.35;;;4.78;;
72273;SDS011;77240;48.692;8.948;2024-03-23T01:02:36;6.68;;;5.45;;
72273;SDS011;77240;48.692;8.948;2024-03-23T01:05:02;6.78;;;5.40;;
72273;SDS011;77240;48.692;8.948;2024-03-23T01:07:28;8.30;;;6.57;;
72273;SDS011;77240;48.692;8.948;2024-03-23T01:09:53;6.75;;;5.18;;
72273;SDS011;77240;48.692;8.948;2024-03-23T01:12:19;6.57;;;5.10;;
72273;SDS011;77240;48.692;8.948;2024-03-23T01:14:45;7.78;;;6.20;;
72273;SDS011;77240;48.692;8.948;2024-03-23T01:17:11;6.35;;;4.97;;
72273;SDS011;77240;48.692;8.948;2024-03-23T01:19:37;5.78;;;3.83;;
72273;SDS011;77240;48.692;8.948;2024-03-23T01:22:04;5.43;;;3.65;;
72273;SDS011;77240;48.692;8.948;2024-03-23T01:24:30;4.55;;;3.42;;
72273;SDS011;77240;48.692;8.948;2024-03-23T01:26:56;4.30;;;3.22;;
72273;SDS011;77240;48.692;8.948;2024-03-23T01:29:22;4.78;;;3.13;;
72273;SDS011;77240;48.692;8.948;2024-03-23T01:31:48;8.45;;;3.15;;
72273;SDS011;77240;48.692;8.948;2024-03-23T01:34:14;6.53;;;3.03;;
72273;SDS011;77240;48.692;8.948;2024-03-23T01:36:40;3.58;;;3.00;;
72273;SDS011;77240;48.692;8.948;2024-03-23T01:39:06;3.88;;;2.95;;
72273;SDS011;77240;48.692;8.948;2024-03-23T01:41:35;4.88;;;3.40;;
72273;SDS011;77240;48.692;8.948;2024-03-23T01:44:04;3.97;;;3.00;;
72273;SDS011;77240;48.692;8.948;2024-03-23T01:46:37;5.22;;;2.78;;
72273;SDS011;77240;48.692;8.948;2024-03-23T01:49:07;4.50;;;3.17;;
72273;SDS011;77240;48.692;8.948;2024-03-23T01:51:34;4.88;;;3.25;;
72273;SDS011;77240;48.692;8.948;2024-03-23T01:54:04;6.65;;;3.10;;
72273;SDS011;77240;48.692;8.948;2024-03-23T01:56:31;4.82;;;3.35;;
72273;SDS011;77240;48.692;8.948;2024-03-23T01:59:01;5.38;;;3.00;;
72273;SDS011;77240;48.692;8.948;2024-03-23T02:01:28;6.50;;;3.08;;
72273;SDS011;77240;48.692;8.948;2024-03-23T02:03:54;5.90;;;3.42;;
72273;SDS011;77240;48.692;8.948;2024-03-23T02:06:20;5.65;;;3.63;;
72273;SDS011;77240;48.692;8.948;2024-03-23T02:08:46;5.63;;;3.42;;
72273;SDS011;77240;48.692;8.948;2024-03-23T02:11:11;7.05;;;3.50;;
72273;SDS011;77240;48.692;8.948;2024-03-23T02:13:37;5.82;;;3.63;;
72273;SDS011;77240;48.692;8.948;2024-03-23T02:16:04;5.45;;;3.38;;
72273;SDS011;77240;48.692;8.948;2024-03-23T02:18:31;4.45;;;3.47;;
72273;SDS011;77240;48.692;8.948;2024-03-23T02:21:00;4.18;;;3.78;;
72273;SDS011;77240;48.692;8.948;2024-03-23T02:23:27;6.95;;;3.42;;
72273;SDS011;77240;48.692;8.948;2024-03-23T02:25:53;4.25;;;3.65;;
72273;SDS011;77240;48.692;8.948;2024-03-23T02:28:22;4.40;;;3.70;;
72273;SDS011;77240;48.692;8.948;2024-03-23T02:30:51;5.72;;;3.78;;
72273;SDS011;77240;48.692;8.948;2024-03-23T02:33:17;4.07;;;3.25;;
72273;SDS011;77240;48.692;8.948;2024-03-23T02:35:43;6.53;;;3.58;;
72273;SDS011;77240;48.692;8.948;2024-03-23T02:38:10;4.13;;;3.33;;
72273;SDS011;77240;48.692;8.948;2024-03-23T02:40:36;8.30;;;3.50;;
72273;SDS011;77240;48.692;8.948;2024-03-23T02:43:03;5.13;;;3.67;;
72273;SDS011;77240;48.692;8.948;2024-03-23T02:45:29;5.13;;;3.63;;
72273;SDS011;77240;48.692;8.948;2024-03-23T02:47:55;4.72;;;3.60;;
72273;SDS011;77240;48.692;8.948;2024-03-23T02:50:22;4.93;;;3.58;;
72273;SDS011;77240;48.692;8.948;2024-03-23T02:52:48;5.85;;;3.50;;
72273;SDS011;77240;48.692;8.948;2024-03-23T02:55:14;5.75;;;3.97;;
72273;SDS011;77240;48.692;8.948;2024-03-23T02:57:40;5.00;;;3.40;;
72273;SDS011;77240;48.692;8.948;2024-03-23T03:00:07;4.18;;;3.63;;
72273;SDS011;77240;48.692;8.948;2024-03-23T03:02:33;5.53;;;3.53;;
72273;SDS011;77240;48.692;8.948;2024-03-23T03:04:59;5.60;;;3.65;;
72273;SDS011;77240;48.692;8.948;2024-03-23T03:07:25;7.22;;;3.60;;
72273;SDS011;77240;48.692;8.948;2024-03-23T03:09:51;4.38;;;3.47;;
72273;SDS011;77240;48.692;8.948;2024-03-23T03:12:17;5.15;;;3.50;;
72273;SDS011;77240;48.692;8.948;2024-03-23T03:14:43;4.45;;;3.40;;
72273;SDS011;77240;48.692;8.948;2024-03-23T03:17:08;5.90;;;3.67;;
72273;SDS011;77240;48.692;8.948;2024-03-23T03:19:34;5.55;;;3.50;;
72273;SDS011;77240;48.692;8.948;2024-03-23T03:22:01;4.43;;;3.38;;
72273;SDS011;77240;48.692;8.948;2024-03-23T03:24:27;6.43;;;3.58;;
72273;SDS011;77240;48.692;8.948;2024-03-23T03:26:52;4.72;;;3.50;;
72273;SDS011;77240;48.692;8.948;2024-03-23T03:29:18;4.55;;;3.20;;
72273;SDS011;77240;48.692;8.948;2024-03-23T03:31:44;5.10;;;3.67;;
72273;SDS011;77240;48.692;8.948;2024-03-23T03:34:10;4.55;;;3.70;;
72273;SDS011;77240;48.692;8.948;2024-03-23T03:36:36;4.85;;;3.80;;
72273;SDS011;77240;48.692;8.948;2024-03-23T03:39:02;5.88;;;3.67;;
72273;SDS011;77240;48.692;8.948;2024-03-23T03:41:31;5.45;;;3.97;;
72273;SDS011;77240;48.692;8.948;2024-03-23T03:43:57;5.00;;;3.65;;
72273;SDS011;77240;48.692;8.948;2024-03-23T03:46:27;4.78;;;3.72;;
72273;SDS011;77240;48.692;8.948;2024-03-23T03:48:54;4.63;;;3.67;;
72273;SDS011;77240;48.692;8.948;2024-03-23T03:51:20;4.90;;;3.50;;
72273;SDS011;77240;48.692;8.948;2024-03-23T03:53:46;3.95;;;3.40;;
72273;SDS011;77240;48.692;8.948;2024-03-23T03:56:12;6.55;;;3.42;;
72273;SDS011;77240;48.692;8.948;2024-03-23T03:58:38;4.07;;;3.35;;
72273;SDS011;77240;48.692;8.948;2024-03-23T04:01:05;4.65;;;3.55;;
72273;SDS011;77240;48.692;8.948;2024-03-23T04:03:31;6.85;;;3.75;;
72273;SDS011;77240;48.692;8.948;2024-03-23T04:05:57;6.15;;;3.55;;
72273;SDS011;77240;48.692;8.948;2024-03-23T04:08:23;5.10;;;3.80;;
72273;SDS011;77240;48.692;8.948;2024-03-23T04:10:49;5.47;;;3.53;;
72273;SDS011;77240;48.692;8.948;2024-03-23T04:13:15;4.70;;;3.60;;
72273;SDS011;77240;48.692;8.948;2024-03-23T04:15:42;3.80;;;3.30;;
72273;SDS011;77240;48.692;8.948;2024-03-23T04:18:08;5.45;;;3.60;;
72273;SDS011;77240;48.692;8.948;2024-03-23T04:20:34;5.28;;;4.00;;
72273;SDS011;77240;48.692;8.948;2024-03-23T04:23:00;6.35;;;3.80;;
72273;SDS011;77240;48.692;8.948;2024-03-23T04:25:26;5.22;;;3.67;;
72273;SDS011;77240;48.692;8.948;2024-03-23T04:27:52;5.75;;;3.40;;
72273;SDS011;77240;48.692;8.948;2024-03-23T04:30:18;4.35;;;3.75;;
72273;SDS011;77240;48.692;8.948;2024-03-23T04:32:44;4.25;;;3.50;;
72273;SDS011;77240;48.692;8.948;2024-03-23T04:35:10;4.57;;;3.33;;
72273;SDS011;77240;48.692;8.948;2024-03-23T04:37:36;5.10;;;3.70;;
72273;SDS011;77240;48.692;8.948;2024-03-23T04:40:03;5.47;;;3.30;;
72273;SDS011;77240;48.692;8.948;2024-03-23T04:42:29;5.10;;;3.53;;
72273;SDS011;77240;48.692;8.948;2024-03-23T04:44:56;5.10;;;3.58;;
72273;SDS011;77240;48.692;8.948;2024-03-23T04:47:22;6.28;;;3.78;;
72273;SDS011;77240;48.692;8.948;2024-03-23T04:49:48;16.92;;;5.22;;
72273;SDS011;77240;48.692;8.948;2024-03-23T04:52:15;8.60;;;5.32;;
72273;SDS011;77240;48.692;8.948;2024-03-23T04:54:42;9.07;;;6.47;;
72273;SDS011;77240;48.692;8.948;2024-03-23T04:57:08;10.57;;;8.13;;
72273;SDS011;77240;48.692;8.948;2024-03-23T04:59:33;14.88;;;9.80;;
72273;SDS011;77240;48.692;8.948;2024-03-23T05:01:59;12.27;;;8.57;;
72273;SDS011;77240;48.692;8.948;2024-03-23T05:04:26;11.23;;;8.70;;
72273;SDS011;77240;48.692;8.948;2024-03-23T05:06:52;12.70;;;9.30;;
72273;SDS011;77240;48.692;8.948;2024-03-23T05:09:18;9.52;;;8.48;;
72273;SDS011;77240;48.692;8.948;2024-03-23T05:11:43;16.23;;;10.98;;
72273;SDS011;77240;48.692;8.948;2024-03-23T05:14:12;15.40;;;10.95;;
72273;SDS011;77240;48.692;8.948;2024-03-23T05:16:38;17.65;;;11.80;;
72273;SDS011;77240;48.692;8.948;2024-03-23T05:19:04;12.68;;;9.98;;
72273;SDS011;77240;48.692;8.948;2024-03-23T05:21:30;17.08;;;13.60;;
72273;SDS011;77240;48.692;8.948;2024-03-23T05:23:56;16.33;;;12.70;;
72273;SDS011;77240;48.692;8.948;2024-03-23T05:26:22;14.77;;;12.23;;
72273;SDS011;77240;48.692;8.948;2024-03-23T05:28:48;16.70;;;12.57;;
72273;SDS011;77240;48.692;8.948;2024-03-23T05:31:27;15.07;;;12.50;;
72273;SDS011;77240;48.692;8.948;2024-03-23T05:33:54;15.80;;;12.93;;
72273;SDS011;77240;48.692;8.948;2024-03-23T05:36:20;14.25;;;11.82;;
72273;SDS011;77240;48.692;8.948;2024-03-23T05:38:46;13.35;;;11.43;;
72273;SDS011;77240;48.692;8.948;2024-03-23T05:41:12;15.70;;;12.40;;
72273;SDS011;77240;48.692;8.948;2024-03-23T05:43:38;13.20;;;11.50;;
72273;SDS011;77240;48.692;8.948;2024-03-23T05:46:04;15.52;;;12.43;;
72273;SDS011;77240;48.692;8.948;2024-03-23T05:48:31;14.00;;;11.18;;
72273;SDS011;77240;48.692;8.948;2024-03-23T05:50:57;12.27;;;10.07;;
72273;SDS011;77240;48.692;8.948;2024-03-23T05:53:23;12.60;;;8.18;;
72273;SDS011;77240;48.692;8.948;2024-03-23T05:55:50;11.35;;;8.77;;
72273;SDS011;77240;48.692;8.948;2024-03-23T05:58:19;15.10;;;11.35;;
72273;SDS011;77240;48.692;8.948;2024-03-23T06:00:45;14.93;;;11.50;;
72273;SDS011;77240;48.692;8.948;2024-03-23T06:03:11;7.07;;;6.32;;
72273;SDS011;77240;48.692;8.948;2024-03-23T06:05:37;6.25;;;5.20;;
72273;SDS011;77240;48.692;8.948;2024-03-23T06:08:03;6.80;;;5.85;;
72273;SDS011;77240;48.692;8.948;2024-03-23T06:10:30;5.80;;;4.38;;
72273;SDS011;77240;48.692;8.948;2024-03-23T06:12:57;5.22;;;4.03;;
72273;SDS011;77240;48.692;8.948;2024-03-23T06:15:24;5.65;;;4.40;;
72273;SDS011;77240;48.692;8.948;2024-03-23T06:17:50;4.97;;;4.18;;
72273;SDS011;77240;48.692;8.948;2024-03-23T06:20:16;5.10;;;3.80;;
72273;SDS011;77240;48.692;8.948;2024-03-23T06:22:42;4.65;;;2.95;;
72273;SDS011;77240;48.692;8.948;2024-03-23T06:25:08;4.82;;;3.53;;
72273;SDS011;77240;48.692;8.948;2024-03-23T06:27:34;2.72;;;2.33;;
72273;SDS011;77240;48.692;8.948;2024-03-23T06:30:00;3.22;;;2.20;;
72273;SDS011;77240;48.692;8.948;2024-03-23T06:32:26;3.40;;;2.80;;
72273;SDS011;77240;48.692;8.948;2024-03-23T06:34:53;1.95;;;1.50;;
72273;SDS011;77240;48.692;8.948;2024-03-23T06:37:19;1.55;;;1.45;;
72273;SDS011;77240;48.692;8.948;2024-03-23T06:39:45;1.40;;;1.30;;
72273;SDS011;77240;48.692;8.948;2024-03-23T06:42:12;1.98;;;1.40;;
72273;SDS011;77240;48.692;8.948;2024-03-23T06:44:38;1.98;;;1.42;;
72273;SDS011;77240;48.692;8.948;2024-03-23T06:47:05;1.27;;;1.17;;
72273;SDS011;77240;48.692;8.948;2024-03-23T06:49:31;1.80;;;1.35;;
72273;SDS011;77240;48.692;8.948;2024-03-23T06:51:57;1.75;;;1.20;;
72273;SDS011;77240;48.692;8.948;2024-03-23T06:54:24;1.30;;;1.10;;
72273;SDS011;77240;48.692;8.948;2024-03-23T06:56:50;1.15;;;1.00;;
72273;SDS011;77240;48.692;8.948;2024-03-23T06:59:16;1.13;;;0.73;;
72273;SDS011;77240;48.692;8.948;2024-03-23T07:01:41;0.80;;;0.80;;
72273;SDS011;77240;48.692;8.948;2024-03-23T07:04:07;0.60;;;0.60;;
72273;SDS011;77240;48.692;8.948;2024-03-23T07:06:33;0.60;;;0.60;;
72273;SDS011;77240;48.692;8.948;2024-03-23T07:08:59;0.70;;;0.68;;
72273;SDS011;77240;48.692;8.948;2024-03-23T07:11:25;0.65;;;0.65;;
72273;SDS011;77240;48.692;8.948;2024-03-23T07:13:55;0.63;;;0.50;;
72273;SDS011;77240;48.692;8.948;2024-03-23T07:16:20;0.57;;;0.57;;
72273;SDS011;77240;48.692;8.948;2024-03-23T07:18:46;0.45;;;0.45;;
72273;SDS011;77240;48.692;8.948;2024-03-23T07:21:12;0.55;;;0.47;;
72273;SDS011;77240;48.692;8.948;2024-03-23T07:23:41;0.50;;;0.50;;
72273;SDS011;77240;48.692;8.948;2024-03-23T07:26:10;0.50;;;0.50;;
72273;SDS011;77240;48.692;8.948;2024-03-23T07:28:36;0.40;;;0.40;;
72273;SDS011;77240;48.692;8.948;2024-03-23T07:33:35;0.40;;;0.40;;
72273;SDS011;77240;48.692;8.948;2024-03-23T07:36:02;0.40;;;0.40;;
72273;SDS011;77240;48.692;8.948;2024-03-23T07:38:28;0.47;;;0.47;;
72273;SDS011;77240;48.692;8.948;2024-03-23T07:43:34;0.73;;;0.73;;
72273;SDS011;77240;48.692;8.948;2024-03-23T07:46:01;1.08;;;0.52;;
72273;SDS011;77240;48.692;8.948;2024-03-23T07:48:29;0.30;;;0.30;;
72273;SDS011;77240;48.692;8.948;2024-03-23T07:51:05;0.57;;;0.57;;
72273;SDS011;77240;48.692;8.948;2024-03-23T07:53:32;0.95;;;0.90;;
72273;SDS011;77240;48.692;8.948;2024-03-23T07:55:59;0.70;;;0.70;;
72273;SDS011;77240;48.692;8.948;2024-03-23T07:58:26;1.15;;;0.75;;
72273;SDS011;77240;48.692;8.948;2024-03-23T08:00:53;0.90;;;0.90;;
72273;SDS011;77240;48.692;8.948;2024-03-23T08:03:19;1.25;;;1.05;;
72273;SDS011;77240;48.692;8.948;2024-03-23T08:05:45;0.60;;;0.60;;
72273;SDS011;77240;48.692;8.948;2024-03-23T08:08:11;0.60;;;0.60;;
72273;SDS011;77240;48.692;8.948;2024-03-23T08:10:46;1.50;;;0.70;;
72273;SDS011;77240;48.692;8.948;2024-03-23T08:13:13;1.05;;;0.95;;
72273;SDS011;77240;48.692;8.948;2024-03-23T08:15:39;0.60;;;0.60;;
72273;SDS011;77240;48.692;8.948;2024-03-23T08:18:05;1.67;;;1.00;;
72273;SDS011;77240;48.692;8.948;2024-03-23T08:20:31;0.88;;;0.82;;
72273;SDS011;77240;48.692;8.948;2024-03-23T08:22:57;1.17;;;0.95;;
72273;SDS011;77240;48.692;8.948;2024-03-23T08:25:23;1.02;;;0.65;;
72273;SDS011;77240;48.692;8.948;2024-03-23T08:27:48;1.60;;;1.00;;
72273;SDS011;77240;48.692;8.948;2024-03-23T08:30:15;1.20;;;1.08;;
72273;SDS011;77240;48.692;8.948;2024-03-23T08:32:41;1.73;;;1.15;;
72273;SDS011;77240;48.692;8.948;2024-03-23T08:35:08;2.47;;;1.23;;
72273;SDS011;77240;48.692;8.948;2024-03-23T08:37:33;2.15;;;1.27;;
72273;SDS011;77240;48.692;8.948;2024-03-23T08:39:59;1.30;;;1.20;;
72273;SDS011;77240;48.692;8.948;2024-03-23T08:42:25;2.20;;;1.13;;
72273;SDS011;77240;48.692;8.948;2024-03-23T08:44:51;2.65;;;1.48;;
72273;SDS011;77240;48.692;8.948;2024-03-23T08:47:17;3.33;;;1.42;;
72273;SDS011;77240;48.692;8.948;2024-03-23T08:49:44;2.55;;;1.20;;
72273;SDS011;77240;48.692;8.948;2024-03-23T08:52:10;4.38;;;1.80;;
72273;SDS011;77240;48.692;8.948;2024-03-23T08:54:36;2.90;;;1.90;;
72273;SDS011;77240;48.692;8.948;2024-03-23T08:57:02;3.22;;;2.03;;
72273;SDS011;77240;48.692;8.948;2024-03-23T08:59:28;6.20;;;2.40;;
72273;SDS011;77240;48.692;8.948;2024-03-23T09:01:54;4.85;;;2.88;;
72273;SDS011;77240;48.692;8.948;2024-03-23T09:04:19;5.70;;;2.72;;
72273;SDS011;77240;48.692;8.948;2024-03-23T09:06:47;4.68;;;2.90;;
72273;SDS011;77240;48.692;8.948;2024-03-23T09:09:12;5.28;;;3.05;;
72273;SDS011;77240;48.692;8.948;2024-03-23T09:11:38;6.28;;;3.47;;
72273;SDS011;77240;48.692;8.948;2024-03-23T09:14:04;5.95;;;3.25;;
72273;SDS011;77240;48.692;8.948;2024-03-23T09:16:30;6.55;;;3.45;;
72273;SDS011;77240;48.692;8.948;2024-03-23T09:18:56;6.78;;;3.45;;
72273;SDS011;77240;48.692;8.948;2024-03-23T09:21:22;8.15;;;3.20;;
72273;SDS011;77240;48.692;8.948;2024-03-23T09:23:47;5.10;;;3.00;;
72273;SDS011;77240;48.692;8.948;2024-03-23T09:26:14;6.75;;;3.50;;
72273;SDS011;77240;48.692;8.948;2024-03-23T09:28:40;7.40;;;3.70;;
72273;SDS011;77240;48.692;8.948;2024-03-23T09:31:06;4.60;;;3.00;;
72273;SDS011;77240;48.692;8.948;2024-03-23T09:33:34;7.78;;;3.95;;
72273;SDS011;77240;48.692;8.948;2024-03-23T09:36:04;7.05;;;3.50;;
72273;SDS011;77240;48.692;8.948;2024-03-23T09:38:30;8.90;;;3.22;;
72273;SDS011;77240;48.692;8.948;2024-03-23T09:40:56;6.88;;;3.03;;
72273;SDS011;77240;48.692;8.948;2024-03-23T09:43:23;6.43;;;3.42;;
72273;SDS011;77240;48.692;8.948;2024-03-23T09:45:49;5.88;;;3.20;;
72273;SDS011;77240;48.692;8.948;2024-03-23T09:48:15;7.07;;;2.92;;
72273;SDS011;77240;48.692;8.948;2024-03-23T09:50:42;6.80;;;2.95;;
72273;SDS011;77240;48.692;8.948;2024-03-23T09:53:09;6.35;;;3.05;;
72273;SDS011;77240;48.692;8.948;2024-03-23T09:55:40;5.78;;;3.08;;
72273;SDS011;77240;48.692;8.948;2024-03-23T09:58:07;7.60;;;3.33;;
72273;SDS011;77240;48.692;8.948;2024-03-23T10:00:37;9.93;;;3.03;;
72273;SDS011;77240;48.692;8.948;2024-03-23T10:03:06;5.20;;;2.58;;
72273;SDS011;77240;48.692;8.948;2024-03-23T10:05:34;5.78;;;2.80;;
72273;SDS011;77240;48.692;8.948;2024-03-23T10:08:00;6.00;;;3.05;;
72273;SDS011;77240;48.692;8.948;2024-03-23T10:10:42;7.78;;;3.20;;
72273;SDS011;77240;48.692;8.948;2024-03-23T10:13:09;6.30;;;2.88;;
72273;SDS011;77240;48.692;8.948;2024-03-23T10:15:36;7.47;;;2.88;;
72273;SDS011;77240;48.692;8.948;2024-03-23T10:18:35;9.25;;;3.25;;
72273;SDS011;77240;48.692;8.948;2024-03-23T10:23:37;5.68;;;3.00;;
72273;SDS011;77240;48.692;8.948;2024-03-23T10:28:50;8.88;;;3.40;;
72273;SDS011;77240;48.692;8.948;2024-03-23T10:31:33;6.70;;;3.35;;
72273;SDS011;77240;48.692;8.948;2024-03-23T10:34:02;7.88;;;3.10;;
72273;SDS011;77240;48.692;8.948;2024-03-23T10:36:29;8.13;;;3.50;;
72273;SDS011;77240;48.692;8.948;2024-03-23T10:38:56;10.75;;;3.70;;
72273;SDS011;77240;48.692;8.948;2024-03-23T10:41:28;9.02;;;3.90;;
72273;SDS011;77240;48.692;8.948;2024-03-23T10:43:56;24.10;;;3.08;;
72273;SDS011;77240;48.692;8.948;2024-03-23T10:46:24;6.05;;;2.53;;
72273;SDS011;77240;48.692;8.948;2024-03-23T10:48:50;5.95;;;2.17;;
72273;SDS011;77240;48.692;8.948;2024-03-23T10:51:16;7.38;;;3.22;;
72273;SDS011;77240;48.692;8.948;2024-03-23T10:53:42;8.68;;;4.53;;
72273;SDS011;77240;48.692;8.948;2024-03-23T10:56:08;11.75;;;5.60;;
72273;SDS011;77240;48.692;8.948;2024-03-23T10:58:37;11.70;;;5.22;;
72273;SDS011;77240;48.692;8.948;2024-03-23T11:01:06;10.18;;;5.63;;
72273;SDS011;77240;48.692;8.948;2024-03-23T11:03:36;12.23;;;5.20;;
72273;SDS011;77240;48.692;8.948;2024-03-23T11:06:04;9.30;;;3.53;;
72273;SDS011;77240;48.692;8.948;2024-03-23T11:08:38;5.85;;;2.97;;
72273;SDS011;77240;48.692;8.948;2024-03-23T11:11:12;7.13;;;2.90;;
72273;SDS011;77240;48.692;8.948;2024-03-23T11:13:47;8.57;;;3.20;;
72273;SDS011;77240;48.692;8.948;2024-03-23T11:16:23;12.43;;;3.63;;
72273;SDS011;77240;48.692;8.948;2024-03-23T11:18:50;4.50;;;2.63;;
72273;SDS011;77240;48.692;8.948;2024-03-23T11:24:21;5.10;;;2.58;;
72273;SDS011;77240;48.692;8.948;2024-03-23T11:26:50;3.97;;;1.90;;
72273;SDS011;77240;48.692;8.948;2024-03-23T11:29:17;3.42;;;1.90;;
72273;SDS011;77240;48.692;8.948;2024-03-23T11:31:53;4.85;;;2.15;;
72273;SDS011;77240;48.692;8.948;2024-03-23T11:34:19;4.30;;;1.80;;
72273;SDS011;77240;48.692;8.948;2024-03-23T11:36:46;4.80;;;1.70;;
72273;SDS011;77240;48.692;8.948;2024-03-23T11:39:16;4.03;;;1.60;;
72273;SDS011;77240;48.692;8.948;2024-03-23T11:41:49;5.70;;;1.70;;
72273;SDS011;77240;48.692;8.948;2024-03-23T11:44:21;4.15;;;1.80;;
72273;SDS011;77240;48.692;8.948;2024-03-23T11:46:49;4.70;;;1.70;;
72273;SDS011;77240;48.692;8.948;2024-03-23T11:49:25;4.30;;;1.40;;
72273;SDS011;77240;48.692;8.948;2024-03-23T11:51:57;4.95;;;1.60;;
72273;SDS011;77240;48.692;8.948;2024-03-23T11:54:24;6.63;;;2.00;;
72273;SDS011;77240;48.692;8.948;2024-03-23T11:56:57;5.18;;;1.48;;
72273;SDS011;77240;48.692;8.948;2024-03-23T12:02:00;6.65;;;2.10;;
72273;SDS011;77240;48.692;8.948;2024-03-23T12:04:29;9.70;;;2.70;;
72273;SDS011;77240;48.692;8.948;2024-03-23T12:09:41;7.63;;;2.08;;
72273;SDS011;77240;48.692;8.948;2024-03-23T12:12:08;7.15;;;2.08;;
72273;SDS011;77240;48.692;8.948;2024-03-23T12:14:44;6.13;;;2.10;;
72273;SDS011;77240;48.692;8.948;2024-03-23T12:17:11;6.07;;;2.13;;
72273;SDS011;77240;48.692;8.948;2024-03-23T12:19:37;7.65;;;2.22;;
72273;SDS011;77240;48.692;8.948;2024-03-23T12:22:06;6.22;;;2.10;;
72273;SDS011;77240;48.692;8.948;2024-03-23T12:24:33;6.75;;;1.92;;
72273;SDS011;77240;48.692;8.948;2024-03-23T12:27:05;12.90;;;2.53;;
72273;SDS011;77240;48.692;8.948;2024-03-23T12:29:31;6.68;;;2.28;;
72273;SDS011;77240;48.692;8.948;2024-03-23T12:32:01;8.98;;;2.75;;
72273;SDS011;77240;48.692;8.948;2024-03-23T12:34:28;6.80;;;2.47;;
72273;SDS011;77240;48.692;8.948;2024-03-23T12:36:55;6.47;;;2.50;;
72273;SDS011;77240;48.692;8.948;2024-03-23T12:39:22;7.68;;;2.70;;
72273;SDS011;77240;48.692;8.948;2024-03-23T12:41:48;6.47;;;2.70;;
72273;SDS011;77240;48.692;8.948;2024-03-23T12:44:14;8.13;;;2.55;;
72273;SDS011;77240;48.692;8.948;2024-03-23T12:46:41;6.93;;;2.47;;
72273;SDS011;77240;48.692;8.948;2024-03-23T12:49:07;8.25;;;2.67;;
72273;SDS011;77240;48.692;8.948;2024-03-23T12:51:33;7.40;;;2.70;;
72273;SDS011;77240;48.692;8.948;2024-03-23T12:53:59;6.22;;;2.30;;
72273;SDS011;77240;48.692;8.948;2024-03-23T12:56:25;6.32;;;2.30;;
72273;SDS011;77240;48.692;8.948;2024-03-23T12:58:54;10.10;;;2.60;;
72273;SDS011;77240;48.692;8.948;2024-03-23T13:01:26;4.75;;;2.00;;
72273;SDS011;77240;48.692;8.948;2024-03-23T13:03:52;4.78;;;1.40;;
72273;SDS011;77240;48.692;8.948;2024-03-23T13:06:18;4.57;;;1.58;;
72273;SDS011;77240;48.692;8.948;2024-03-23T13:08:45;4.05;;;1.20;;
72273;SDS011;77240;48.692;8.948;2024-03-23T13:11:11;1.27;;;0.73;;
72273;SDS011;77240;48.692;8.948;2024-03-23T13:13:38;2.55;;;1.08;;
72273;SDS011;77240;48.692;8.948;2024-03-23T13:16:04;3.25;;;0.90;;
72273;SDS011;77240;48.692;8.948;2024-03-23T13:18:31;1.50;;;0.65;;
72273;SDS011;77240;48.692;8.948;2024-03-23T13:20:57;3.92;;;1.00;;
72273;SDS011;77240;48.692;8.948;2024-03-23T13:23:24;2.33;;;0.88;;
72273;SDS011;77240;48.692;8.948;2024-03-23T13:25:53;2.65;;;0.88;;
72273;SDS011;77240;48.692;8.948;2024-03-23T13:28:20;2.22;;;0.85;;
72273;SDS011;77240;48.692;8.948;2024-03-23T13:30:50;1.70;;;0.90;;
72273;SDS011;77240;48.692;8.948;2024-03-23T13:33:16;3.85;;;1.10;;
72273;SDS011;77240;48.692;8.948;2024-03-23T13:35:52;3.47;;;0.98;;
72273;SDS011;77240;48.692;8.948;2024-03-23T13:38:22;1.88;;;0.80;;
72273;SDS011;77240;48.692;8.948;2024-03-23T13:40:52;2.05;;;0.90;;
72273;SDS011;77240;48.692;8.948;2024-03-23T13:43:18;2.35;;;1.10;;
72273;SDS011;77240;48.692;8.948;2024-03-23T13:45:45;3.28;;;1.20;;
72273;SDS011;77240;48.692;8.948;2024-03-23T13:48:12;5.57;;;2.45;;
72273;SDS011;77240;48.692;8.948;2024-03-23T13:50:38;3.45;;;1.40;;
72273;SDS011;77240;48.692;8.948;2024-03-23T13:53:04;4.90;;;1.60;;
72273;SDS011;77240;48.692;8.948;2024-03-23T13:55:30;1.92;;;0.90;;
72273;SDS011;77240;48.692;8.948;2024-03-23T13:57:56;4.60;;;1.38;;
72273;SDS011;77240;48.692;8.948;2024-03-23T14:00:22;4.13;;;1.55;;
72273;SDS011;77240;48.692;8.948;2024-03-23T14:02:48;4.88;;;1.33;;
72273;SDS011;77240;48.692;8.948;2024-03-23T14:05:14;3.47;;;1.40;;
72273;SDS011;77240;48.692;8.948;2024-03-23T14:07:40;3.45;;;1.50;;
72273;SDS011;77240;48.692;8.948;2024-03-23T14:10:06;3.30;;;1.40;;
72273;SDS011;77240;48.692;8.948;2024-03-23T14:12:32;3.45;;;1.00;;
72273;SDS011;77240;48.692;8.948;2024-03-23T14:14:58;2.65;;;1.10;;
72273;SDS011;77240;48.692;8.948;2024-03-23T14:17:25;3.03;;;1.20;;
72273;SDS011;77240;48.692;8.948;2024-03-23T14:19:51;3.45;;;1.20;;
72273;SDS011;77240;48.692;8.948;2024-03-23T14:22:17;4.00;;;1.27;;
72273;SDS011;77240;48.692;8.948;2024-03-23T14:24:45;3.65;;;1.30;;
72273;SDS011;77240;48.692;8.948;2024-03-23T14:27:11;5.30;;;1.80;;
72273;SDS011;77240;48.692;8.948;2024-03-23T14:29:36;3.83;;;1.40;;
72273;SDS011;77240;48.692;8.948;2024-03-23T14:32:02;5.32;;;1.80;;
72273;SDS011;77240;48.692;8.948;2024-03-23T14:34:28;4.13;;;1.15;;
72273;SDS011;77240;48.692;8.948;2024-03-23T14:36:54;4.93;;;1.60;;
72273;SDS011;77240;48.692;8.948;2024-03-23T14:39:23;3.58;;;1.05;;
72273;SDS011;77240;48.692;8.948;2024-03-23T14:41:52;3.97;;;1.27;;
72273;SDS011;77240;48.692;8.948;2024-03-23T14:44:18;6.28;;;1.50;;
72273;SDS011;77240;48.692;8.948;2024-03-23T14:46:44;4.95;;;1.42;;
72273;SDS011;77240;48.692;8.948;2024-03-23T14:49:14;4.30;;;1.50;;
72273;SDS011;77240;48.692;8.948;2024-03-23T14:51:42;6.18;;;1.60;;
72273;SDS011;77240;48.692;8.948;2024-03-23T14:54:08;5.43;;;2.00;;
72273;SDS011;77240;48.692;8.948;2024-03-23T14:56:34;4.78;;;1.52;;
72273;SDS011;77240;48.692;8.948;2024-03-23T14:59:00;4.18;;;1.73;;
72273;SDS011;77240;48.692;8.948;2024-03-23T15:01:26;3.67;;;1.50;;
72273;SDS011;77240;48.692;8.948;2024-03-23T15:03:52;2.00;;;1.10;;
72273;SDS011;77240;48.692;8.948;2024-03-23T15:06:19;5.15;;;1.30;;
72273;SDS011;77240;48.692;8.948;2024-03-23T15:08:45;2.80;;;1.05;;
72273;SDS011;77240;48.692;8.948;2024-03-23T15:11:10;3.50;;;1.50;;
72273;SDS011;77240;48.692;8.948;2024-03-23T15:13:37;2.10;;;1.10;;
72273;SDS011;77240;48.692;8.948;2024-03-23T15:16:04;1.98;;;0.95;;
72273;SDS011;77240;48.692;8.948;2024-03-23T15:18:31;2.08;;;1.02;;
72273;SDS011;77240;48.692;8.948;2024-03-23T15:20:59;7.53;;;2.83;;
72273;SDS011;77240;48.692;8.948;2024-03-23T15:23:29;2.40;;;1.10;;
72273;SDS011;77240;48.692;8.948;2024-03-23T15:28:22;2.58;;;1.05;;
72273;SDS011;77240;48.692;8.948;2024-03-23T15:30:49;4.43;;;0.90;;
72273;SDS011;77240;48.692;8.948;2024-03-23T15:33:15;2.40;;;0.80;;
72273;SDS011;77240;48.692;8.948;2024-03-23T15:35:41;2.15;;;0.98;;
72273;SDS011;77240;48.692;8.948;2024-03-23T15:38:07;1.90;;;0.93;;
72273;SDS011;77240;48.692;8.948;2024-03-23T15:40:33;2.72;;;1.23;;
72273;SDS011;77240;48.692;8.948;2024-03-23T15:42:59;2.88;;;0.93;;
72273;SDS011;77240;48.692;8.948;2024-03-23T15:45:26;2.92;;;1.42;;
72273;SDS011;77240;48.692;8.948;2024-03-23T15:47:52;2.38;;;0.80;;
72273;SDS011;77240;48.692;8.948;2024-03-23T15:50:18;4.15;;;1.17;;
72273;SDS011;77240;48.692;8.948;2024-03-23T15:52:44;1.58;;;0.70;;
72273;SDS011;77240;48.692;8.948;2024-03-23T15:55:10;4.72;;;1.08;;
72273;SDS011;77240;48.692;8.948;2024-03-23T15:57:36;5.00;;;1.10;;
72273;SDS011;77240;48.692;8.948;2024-03-23T16:00:02;2.03;;;0.80;;